Details for QantasLink at YBCS




Go Back


Latest METAR
Local Time

YBCS 232330Z 27004KT 250V310 9999 FEW020 BKN230 29/24 Q1009 NOSIG

24/02/2018, 09:46:47

Description
Results
QantasLink Logo
Number of Pilots based at YBCS
0 Pilots Based here
Number of QantasLink Flights Departed from YBCS
0 Flights Departed
Number of QantasLink Flights Arrived at YBCS
0 Flights Arrived
Number of QantasLink Schedules Departing from YBCS
13 Schedules
Number of QantasLink Schedules Arriving at YBCS
14 Schedules
Number of QantasLink Schedules Departing from YBCS availible today
8 Schedules Today
Number of QantasLink Schedules Arriving at YBCS availible today
8 Schedules Today
Average Landing Rate at YBCS
-96 fpm
QantasLink Average Landing Rate at YBCS
0 fpm
Total Fuel Purchased at YBCS by QantasLink
0.00 kgs / 0.00 lbs

Pilots Based at YBCS


Pilot ID
Pilot Name
Pilot Rank
No. of Flights
No. of Flying Hours
There are no pilots assigned to this hub!   Will you be the first?
Content